Time;durP1;ratioP1;P1;durP2;ratioP2;P2;SDS_P1;SDS_P2;PMS_P1;PMS_P2;Temp;Humidity;BMP_temperature;BMP_pressure;BME280_temperature;BME280_humidity;BME280_pressure;Samples;Min_cycle;Max_cycle;Signal;HPM_P1;HPM_P2
2021/08/31 00:01:43;;;;;;;;;7.00;7.00;;;;;28.89;69.45;98903.28;5074569;28;8832;-71
2021/08/31 00:04:12;;;;;;;;;6.75;6.75;;;;;28.92;69.42;98907.94;5074587;28;8840;-71
2021/08/31 00:06:40;;;;;;;;;6.00;6.00;;;;;28.96;69.26;98907.94;5074349;28;8893;-71
2021/08/31 00:09:09;;;;;;;;;4.75;4.75;;;;;28.99;69.49;98909.91;5074422;28;8917;-71
2021/08/31 00:11:37;;;;;;;;;7.00;7.00;;;;;29.02;68.87;98909.13;5074316;28;8866;-71
2021/08/31 00:14:06;;;;;;;;;7.75;7.75;;;;;28.80;68.91;98868.31;5074299;28;9603;-71
2021/08/31 00:16:34;;;;;;;;;7.00;7.00;;;;;29.07;68.93;98909.53;5074224;28;8844;-71
2021/08/31 00:19:03;;;;;;;;;6.25;6.25;;;;;29.09;69.34;98918.06;5074217;28;8828;-71
2021/08/31 00:21:31;;;;;;;;;5.75;5.75;;;;;29.11;69.14;98918.44;5074702;28;8856;-71
2021/08/31 00:24:00;;;;;;;;;8.25;7.00;;;;;29.13;68.97;98916.13;5074162;28;8851;-71
2021/08/31 00:26:29;;;;;;;;;6.00;6.00;;;;;29.04;68.72;98902.13;5074057;28;8836;-71
2021/08/31 00:28:57;;;;;;;;;5.20;5.20;;;;;28.97;69.16;98887.78;5072911;28;8919;-72
2021/08/31 00:31:25;;;;;;;;;3.80;3.80;;;;;29.17;68.60;98916.13;5074013;28;8846;-71
2021/08/31 00:33:54;;;;;;;;;4.40;4.40;;;;;29.10;69.04;98911.47;5072813;28;8852;-72
2021/08/31 00:36:22;;;;;;;;;5.80;5.80;;;;;29.21;68.39;98925.06;5073699;28;8832;-71
2021/08/31 00:38:51;;;;;;;;;6.80;6.80;;;;;29.22;68.47;98924.69;5073697;28;8844;-72
2021/08/31 00:41:20;;;;;;;;;6.20;5.60;;;;;29.18;68.52;98904.09;5073699;28;8901;-71
2021/08/31 00:43:50;;;;;;;;;4.40;4.40;;;;;29.28;68.02;98910.72;5074039;28;8875;-71
2021/08/31 00:46:21;;;;;;;;;4.80;3.40;;;;;29.29;67.63;98915.75;5073613;28;8860;-72
2021/08/31 00:48:50;;;;;;;;;6.00;6.00;;;;;29.30;67.74;98916.53;5073495;28;9599;-71
2021/08/31 00:51:24;;;;;;;;;3.80;3.80;;;;;29.31;67.69;98920.81;5073438;28;8836;-71
2021/08/31 00:53:53;;;;;;;;;4.60;4.60;;;;;29.30;67.57;98927.41;5072608;28;8914;-71
2021/08/31 00:56:22;;;;;;;;;4.20;4.20;;;;;29.29;67.36;98925.84;5073306;28;8823;-73
2021/08/31 00:58:51;;;;;;;;;4.00;4.00;;;;;29.34;66.75;98930.91;5071775;28;8840;-71
2021/08/31 01:01:19;;;;;;;;;3.00;3.00;;;;;29.33;66.71;98930.13;5073124;28;8844;-72
2021/08/31 01:03:48;;;;;;;;;5.40;5.40;;;;;29.34;66.88;98925.47;5071954;28;8894;-71
2021/08/31 01:06:17;;;;;;;;;5.40;5.40;;;;;29.34;66.97;98936.34;5072864;28;8917;-73
2021/08/31 01:08:46;;;;;;;;;5.00;5.00;;;;;29.31;66.92;98939.81;5072134;28;8848;-74
2021/08/31 01:11:16;;;;;;;;;5.80;5.80;;;;;29.27;66.77;98950.69;5072074;28;8840;-74
2021/08/31 01:13:45;;;;;;;;;6.00;6.00;;;;;29.23;67.02;98941.75;5072228;28;8944;-76
2021/08/31 01:16:13;;;;;;;;;5.20;5.20;;;;;29.22;66.51;98951.06;5072537;28;8831;-76
2021/08/31 01:18:42;;;;;;;;;4.80;4.80;;;;;29.20;66.18;98945.25;5071845;28;8994;-75
2021/08/31 01:21:11;;;;;;;;;6.60;6.60;;;;;29.24;66.54;98954.19;5071981;28;8860;-74
2021/08/31 01:23:40;;;;;;;;;4.00;4.00;;;;;29.25;65.62;98965.81;5070871;28;8839;-73
2021/08/31 01:26:09;;;;;;;;;5.20;5.20;;;;;29.23;66.02;98964.25;5057508;28;9693;-72
2021/08/31 01:28:38;;;;;;;;;5.40;5.40;;;;;29.18;65.67;98959.22;5050994;28;8866;-74
2021/08/31 01:31:06;;;;;;;;;5.00;5.00;;;;;29.30;65.68;98970.88;5051453;28;8838;-72
2021/08/31 01:33:35;;;;;;;;;5.40;5.40;;;;;29.31;66.45;98978.63;5059963;28;8917;-72
2021/08/31 01:36:23;;;;;;;;;6.80;6.00;;;;;29.33;66.28;98978.25;5054309;28;8908;-74
2021/08/31 01:38:57;;;;;;;;;5.00;5.00;;;;;29.34;66.26;98979.81;5052045;28;8916;-74
2021/08/31 01:41:27;;;;;;;;;6.00;6.00;;;;;29.34;67.12;98977.09;5051430;28;8846;-73
2021/08/31 01:43:55;;;;;;;;;5.60;5.60;;;;;29.34;66.99;98977.09;5052651;28;8910;-74
2021/08/31 01:46:24;;;;;;;;;7.00;7.00;;;;;29.29;66.99;98956.50;5054669;28;8846;-74
2021/08/31 01:48:53;;;;;;;;;5.20;5.20;;;;;29.42;66.68;98973.25;5051212;28;8996;-71
2021/08/31 01:51:22;;;;;;;;;5.00;5.00;;;;;29.44;65.98;98970.91;5051963;28;8924;-71
2021/08/31 01:53:53;;;;;;;;;5.80;5.80;;;;;29.44;65.52;98971.69;5052166;28;8856;-72
2021/08/31 01:56:21;;;;;;;;;5.60;5.60;;;;;29.40;65.67;98968.16;5051949;28;8842;-72
2021/08/31 01:58:50;;;;;;;;;7.00;7.00;;;;;29.41;65.52;98955.34;5052651;28;8851;-72
2021/08/31 02:01:18;;;;;;;;;5.20;5.20;;;;;29.44;65.75;98957.34;5050815;28;8897;-72
2021/08/31 02:03:47;;;;;;;;;6.80;6.80;;;;;29.53;65.48;98963.16;5051229;28;9575;-72
2021/08/31 02:06:16;;;;;;;;;4.80;4.80;;;;;29.59;65.71;98950.75;5071895;28;8840;-73
2021/08/31 02:08:44;;;;;;;;;4.00;4.00;;;;;29.63;65.29;98945.31;5071938;28;8851;-72
2021/08/31 02:11:13;;;;;;;;;5.80;5.80;;;;;29.66;65.25;98939.88;5068578;28;8920;-72
2021/08/31 02:13:42;;;;;;;;;6.50;6.50;;;;;29.71;65.18;98942.19;5071763;28;8844;-69
2021/08/31 02:16:10;;;;;;;;;5.80;5.80;;;;;29.75;64.84;98932.09;5071551;28;8864;-73
2021/08/31 02:18:41;;;;;;;;;22.25;22.25;;;;;29.66;64.95;98920.84;5054761;28;8839;-71
2021/08/31 02:21:10;;;;;;;;;9.20;9.20;;;;;29.79;65.11;98927.41;5051216;28;8854;-71
2021/08/31 02:23:42;;;;;;;;;6.60;6.40;;;;;29.80;64.72;98937.13;5051380;28;8858;-72
2021/08/31 02:26:11;;;;;;;;;5.80;5.80;;;;;29.81;64.42;98930.53;5051761;28;8847;-72
2021/08/31 02:28:39;;;;;;;;;5.40;5.40;;;;;29.82;64.34;98932.09;5051094;28;8846;-72
2021/08/31 02:31:08;;;;;;;;;3.60;3.60;;;;;29.80;64.69;98918.09;5051356;28;8988;-72
2021/08/31 02:33:37;;;;;;;;;6.00;6.00;;;;;29.69;64.20;98889.38;5051409;28;8939;-71
2021/08/31 02:36:06;;;;;;;;;4.60;4.60;;;;;29.89;63.87;98911.47;5050871;28;8831;-72
2021/08/31 02:38:34;;;;;;;;;5.80;4.60;;;;;29.97;64.19;98919.19;5050006;28;8850;-71
2021/08/31 02:41:03;;;;;;;;;6.40;6.40;;;;;29.93;64.74;98901.34;5048756;28;8862;-72
2021/08/31 02:43:32;;;;;;;;;2.00;2.00;;;;;30.02;64.16;98910.69;5050579;28;8927;-70
2021/08/31 02:46:00;;;;;;;;;5.40;5.40;;;;;30.04;64.08;98905.63;5050411;28;8870;-72
2021/08/31 02:48:29;;;;;;;;;2.00;2.00;;;;;30.09;63.96;98899.78;5051366;28;8838;-69
2021/08/31 02:50:57;;;;;;;;;5.20;5.20;;;;;30.05;64.46;98890.06;5051465;28;8900;-72
2021/08/31 02:53:26;;;;;;;;;7.00;7.00;;;;;30.19;64.26;98900.91;5051745;28;8976;-69
2021/08/31 02:55:54;;;;;;;;;6.00;6.00;;;;;30.21;63.91;98906.72;5051796;28;8842;-71
2021/08/31 02:58:23;;;;;;;;;4.80;4.80;;;;;30.15;63.92;98883.81;5055581;28;8862;-69
2021/08/31 03:01:04;;;;;;;;;3.80;3.80;;;;;30.24;63.24;98899.72;5055361;28;8923;-71
2021/08/31 03:03:33;;;;;;;;;4.00;4.00;;;;;30.26;64.06;98897.38;5055631;28;8843;-71
2021/08/31 03:06:02;;;;;;;;;4.40;4.40;;;;;30.31;63.94;98900.47;5055810;28;8846;-72
2021/08/31 03:08:30;;;;;;;;;4.40;4.40;;;;;30.37;64.11;98907.06;5055301;28;8847;-71
2021/08/31 03:10:59;;;;;;;;;4.60;4.60;;;;;30.41;63.50;98905.09;5054943;28;8862;-71
2021/08/31 03:13:27;;;;;;;;;4.60;4.60;;;;;30.31;63.58;98881.44;5055297;28;8854;-72
2021/08/31 03:15:56;;;;;;;;;3.80;3.80;;;;;30.42;63.19;98903.94;5055458;28;8862;-71
2021/08/31 03:18:24;;;;;;;;;0.20;0.20;;;;;30.43;63.86;98891.88;5054136;28;8842;-71
2021/08/31 03:20:53;;;;;;;;;5.40;5.40;;;;;30.47;63.53;98900.03;5054839;28;8892;-71
2021/08/31 03:23:22;;;;;;;;;4.80;4.80;;;;;30.44;63.11;98884.50;5055378;28;8846;-71
2021/08/31 03:25:50;;;;;;;;;5.00;5.00;;;;;30.42;62.63;98874.00;5055118;28;8847;-71
2021/08/31 03:28:19;;;;;;;;;4.40;4.40;;;;;30.48;63.28;98877.09;5054354;28;8839;-71
2021/08/31 03:30:48;;;;;;;;;4.00;4.00;;;;;30.54;62.55;98878.22;5055087;28;8834;-71
2021/08/31 03:33:16;;;;;;;;;5.40;5.40;;;;;30.60;63.15;98884.06;5055128;28;8842;-71
2021/08/31 03:35:45;;;;;;;;;3.20;3.20;;;;;30.59;62.61;98869.66;5054887;28;8932;-71
2021/08/31 03:38:13;;;;;;;;;4.00;4.00;;;;;30.79;62.95;98883.56;5054986;28;8884;-71
2021/08/31 03:40:42;;;;;;;;;3.20;3.20;;;;;30.85;62.18;98873.78;5055016;28;8993;-71
2021/08/31 03:43:10;;;;;;;;;4.00;4.00;;;;;30.91;62.50;98879.59;5055813;28;9637;-71
2021/08/31 03:45:39;;;;;;;;;3.80;3.80;;;;;30.86;61.40;98869.91;5054667;28;8859;-71
2021/08/31 03:48:08;;;;;;;;;2.80;2.80;;;;;30.92;60.95;98873.75;5054864;28;8865;-71
2021/08/31 03:50:36;;;;;;;;;3.00;3.00;;;;;31.02;61.96;98877.56;5054740;28;8888;-71
2021/08/31 03:53:05;;;;;;;;;4.80;4.80;;;;;30.99;62.07;98859.31;5054528;28;8850;-71
2021/08/31 03:55:33;;;;;;;;;3.40;3.40;;;;;31.12;61.53;98874.78;5054571;28;8843;-71
2021/08/31 03:58:06;;;;;;;;;3.40;3.40;;;;;31.11;61.56;98867.78;5054899;28;8842;-71
2021/08/31 04:00:35;;;;;;;;;3.00;3.00;;;;;31.11;61.61;98862.31;5054847;28;8927;-71
2021/08/31 04:03:04;;;;;;;;;3.60;3.60;;;;;31.18;61.46;98866.19;5054356;28;8838;-71
2021/08/31 04:05:32;;;;;;;;;3.60;3.60;;;;;30.98;61.87;98831.28;5054443;28;8870;-71
2021/08/31 04:08:01;;;;;;;;;2.60;2.60;;;;;31.21;61.84;98860.69;5052931;28;8900;-71
2021/08/31 04:10:29;;;;;;;;;5.80;3.80;;;;;31.26;60.85;98862.97;5054564;28;9654;-71
2021/08/31 04:12:58;;;;;;;;;2.60;2.60;;;;;31.33;60.79;98862.16;5054707;28;8830;-71
2021/08/31 04:15:26;;;;;;;;;3.60;3.60;;;;;31.38;61.64;98853.53;5054201;28;8881;-71
2021/08/31 04:17:55;;;;;;;;;3.40;3.40;;;;;31.37;59.31;98847.31;5054002;28;8850;-71
2021/08/31 04:20:23;;;;;;;;;3.00;3.00;;;;;31.36;58.98;98842.25;5054157;28;9556;-71
2021/08/31 04:22:52;;;;;;;;;4.00;4.00;;;;;31.42;58.23;98840.66;5057459;28;8908;-71
2021/08/31 04:25:22;;;;;;;;;2.00;2.00;;;;;31.35;58.31;98827.84;5061116;28;8904;-72
2021/08/31 04:27:50;;;;;;;;;2.80;2.80;;;;;31.39;59.32;98828.59;5070051;28;8832;-74
2021/08/31 04:30:19;;;;;;;;;3.40;3.40;;;;;31.51;59.18;98843.69;5053734;28;8863;-74
2021/08/31 04:32:48;;;;;;;;;4.40;4.00;;;;;31.51;58.40;98840.19;5052876;28;9643;-73
2021/08/31 04:35:17;;;;;;;;;3.40;3.40;;;;;31.53;58.59;98835.09;5052673;28;8850;-73
2021/08/31 04:37:45;;;;;;;;;2.60;2.60;;;;;31.56;57.88;98843.25;5051959;28;8849;-72
2021/08/31 04:40:14;;;;;;;;;3.80;3.80;;;;;31.62;57.56;98835.38;5053733;28;8846;-72
2021/08/31 04:42:42;;;;;;;;;3.00;3.00;;;;;31.68;58.34;98834.56;5053322;28;8920;-72
2021/08/31 04:45:11;;;;;;;;;4.00;4.00;;;;;31.72;57.72;98826.34;5053997;28;8850;-73
2021/08/31 04:47:40;;;;;;;;;3.80;3.80;;;;;31.84;58.14;98825.06;5053373;28;9627;-72
2021/08/31 04:50:08;;;;;;;;;3.20;3.20;;;;;31.94;58.29;98824.94;5053338;28;8841;-71
2021/08/31 04:52:37;;;;;;;;;3.80;3.80;;;;;31.94;57.92;98808.56;5052190;28;8846;-71
2021/08/31 04:55:06;;;;;;;;;3.00;3.00;;;;;32.10;57.88;98816.16;5053586;28;8848;-71
2021/08/31 04:57:34;;;;;;;;;4.00;4.00;;;;;32.29;57.56;98817.53;5053428;28;8838;-71
2021/08/31 05:00:03;;;;;;;;;2.60;2.60;;;;;32.36;56.67;98814.69;5053316;28;8830;-71
2021/08/31 05:02:35;;;;;;;;;2.80;2.80;;;;;32.43;55.99;98818.09;5053441;28;8842;-71
2021/08/31 05:05:05;;;;;;;;;3.00;3.00;;;;;32.29;57.61;98792.94;5053677;28;8830;-71
2021/08/31 05:07:33;;;;;;;;;2.60;2.60;;;;;32.44;57.21;98810.69;5053537;28;8846;-71
2021/08/31 05:10:02;;;;;;;;;3.80;3.80;;;;;32.41;59.07;98804.09;5053218;28;8845;-71
2021/08/31 05:12:30;;;;;;;;;4.40;4.40;;;;;32.34;56.45;98793.25;5052006;28;8943;-71
2021/08/31 05:15:00;;;;;;;;;4.20;4.20;;;;;32.35;58.93;98794.03;5053146;28;8858;-71
2021/08/31 05:17:29;;;;;;;;;4.00;4.00;;;;;32.29;59.07;98791.00;5052932;28;8957;-71
2021/08/31 05:19:58;;;;;;;;;7.20;7.20;;;;;32.11;57.17;98772.09;5052896;28;8916;-71
2021/08/31 05:22:27;;;;;;;;;7.00;7.00;;;;;32.09;58.67;98769.00;5053202;28;8866;-71
2021/08/31 05:24:55;;;;;;;;;2.80;2.80;;;;;32.15;58.84;98771.28;5052928;28;8842;-71
2021/08/31 05:27:24;;;;;;;;;4.00;4.00;;;;;32.14;59.26;98767.78;5053601;28;8843;-71
2021/08/31 05:29:52;;;;;;;;;4.00;4.00;;;;;32.11;59.35;98757.69;5052902;28;8946;-71
2021/08/31 05:32:22;;;;;;;;;3.80;3.80;;;;;32.06;58.59;98753.44;5053084;28;8838;-71
2021/08/31 05:34:50;;;;;;;;;3.20;3.20;;;;;31.92;57.29;98717.41;5052800;28;8877;-71
2021/08/31 05:37:19;;;;;;;;;3.80;3.80;;;;;32.06;57.73;98736.31;5052652;28;8854;-71
2021/08/31 05:39:47;;;;;;;;;4.00;4.00;;;;;32.06;57.91;98719.94;5053014;28;8842;-71
2021/08/31 05:42:16;;;;;;;;;4.00;4.00;;;;;32.02;57.76;98681.00;5052680;28;8846;-71
2021/08/31 05:44:45;;;;;;;;;3.80;3.80;;;;;32.43;58.45;98719.81;5052497;28;8830;-71
2021/08/31 05:47:13;;;;;;;;;3.60;3.60;;;;;32.55;57.80;98704.00;5051389;28;8863;-71
2021/08/31 05:49:42;;;;;;;;;3.40;3.40;;;;;32.60;56.94;98695.34;5052534;28;8834;-71
2021/08/31 05:52:12;;;;;;;;;5.40;5.40;;;;;32.71;56.59;98688.50;5051322;28;8897;-71
2021/08/31 05:54:40;;;;;;;;;3.00;3.00;;;;;32.69;56.16;98682.69;5052405;28;8863;-71
2021/08/31 05:57:10;;;;;;;;;3.20;3.20;;;;;32.77;55.21;98688.06;5052306;28;8858;-71
2021/08/31 05:59:41;;;;;;;;;4.00;4.00;;;;;32.75;56.09;98691.94;5052277;28;8822;-71
2021/08/31 06:02:11;;;;;;;;;3.80;3.80;;;;;32.73;55.55;98694.31;5052215;28;8858;-71
2021/08/31 06:04:40;;;;;;;;;4.00;4.00;;;;;32.69;55.80;98690.88;5051558;28;8866;-71
2021/08/31 06:07:09;;;;;;;;;3.40;3.40;;;;;32.67;56.01;98678.81;5052504;28;9620;-71
2021/08/31 06:09:41;;;;;;;;;3.60;3.00;;;;;32.63;56.55;98683.56;5052160;28;8850;-70
2021/08/31 06:12:12;;;;;;;;;5.00;5.00;;;;;32.55;56.46;98669.28;5052174;28;8826;-70
2021/08/31 06:14:41;;;;;;;;;2.40;2.40;;;;;32.60;58.41;98665.28;5051983;28;8863;-69
2021/08/31 06:17:10;;;;;;;;;3.80;3.80;;;;;32.52;59.66;98655.69;5051946;28;8971;-70
2021/08/31 06:19:39;;;;;;;;;3.80;3.80;;;;;32.54;60.09;98656.03;5052058;28;8936;-71
2021/08/31 06:22:07;;;;;;;;;5.80;5.80;;;;;32.46;60.59;98649.19;5051113;28;8904;-71
2021/08/31 06:24:36;;;;;;;;;4.60;4.60;;;;;32.45;60.61;98661.28;5051990;28;9684;-71
2021/08/31 06:27:05;;;;;;;;;4.00;4.00;;;;;32.39;61.05;98650.84;5052030;28;8854;-71
2021/08/31 06:29:33;;;;;;;;;3.20;3.20;;;;;32.35;60.46;98649.34;5052253;28;8971;-71
2021/08/31 06:32:02;;;;;;;;;4.00;4.00;;;;;32.22;62.07;98629.25;5051201;28;9595;-71
2021/08/31 06:34:30;;;;;;;;;3.20;3.20;;;;;32.29;62.33;98637.34;5052231;28;8874;-71
2021/08/31 06:36:59;;;;;;;;;3.80;3.80;;;;;32.34;62.43;98634.16;5051866;28;8842;-71
2021/08/31 06:39:27;;;;;;;;;3.40;3.40;;;;;32.48;62.05;98620.25;5052052;28;8850;-71
2021/08/31 06:41:56;;;;;;;;;3.80;3.80;;;;;32.52;59.84;98603.78;5051861;28;8842;-71
2021/08/31 06:44:25;;;;;;;;;5.20;5.20;;;;;32.74;62.65;98604.94;5051847;28;8923;-71
2021/08/31 06:46:53;;;;;;;;;7.40;7.40;;;;;32.78;61.80;98600.22;5051708;28;8830;-71
2021/08/31 06:49:22;;;;;;;;;6.00;6.00;;;;;32.69;60.72;98567.19;5051767;28;8945;-71
2021/08/31 06:51:50;;;;;;;;;4.20;4.20;;;;;32.99;59.45;98604.50;5051700;28;8936;-71
2021/08/31 06:54:19;;;;;;;;;3.40;3.40;;;;;33.01;59.60;98599.41;5052072;28;8831;-71
2021/08/31 06:56:47;;;;;;;;;1.80;1.80;;;;;32.98;58.07;98594.78;5051735;28;8853;-71
2021/08/31 06:59:16;;;;;;;;;4.60;4.60;;;;;33.04;58.10;98601.28;5050369;28;9626;-71
2021/08/31 07:01:44;;;;;;;;;3.00;3.00;;;;;33.14;57.18;98602.28;5051742;28;8842;-71
2021/08/31 07:04:13;;;;;;;;;2.80;2.80;;;;;33.19;56.30;98602.53;5051734;28;8910;-71
2021/08/31 07:06:41;;;;;;;;;2.60;2.20;;;;;33.18;55.71;98589.28;5051822;28;8842;-71
2021/08/31 07:09:10;;;;;;;;;2.00;2.00;;;;;33.17;55.58;98583.06;5051629;28;8838;-71
2021/08/31 07:11:38;;;;;;;;;2.00;2.00;;;;;33.31;55.33;98588.25;5051585;28;8834;-71
2021/08/31 07:14:07;;;;;;;;;2.00;2.00;;;;;33.32;54.70;98586.31;5051564;28;8907;-71
2021/08/31 07:16:35;;;;;;;;;2.00;2.00;;;;;33.42;55.48;98585.31;5050578;28;8838;-71
2021/08/31 07:19:04;;;;;;;;;2.00;2.00;;;;;33.47;54.98;98573.88;5051710;28;8838;-71
2021/08/31 07:21:33;;;;;;;;;2.00;2.00;;;;;33.56;54.84;98567.81;5051508;28;8939;-71
2021/08/31 07:24:01;;;;;;;;;1.60;1.60;;;;;33.46;54.83;98522.31;5051533;28;8834;-71
2021/08/31 07:26:30;;;;;;;;;1.80;1.80;;;;;33.85;54.59;98557.75;5051455;28;8834;-71
2021/08/31 07:28:58;;;;;;;;;1.20;1.20;;;;;33.96;54.69;98549.28;5051830;28;9571;-71
2021/08/31 07:31:27;;;;;;;;;4.60;4.60;;;;;34.15;54.80;98548.41;5051421;28;8850;-71
2021/08/31 07:33:55;;;;;;;;;1.00;1.00;;;;;34.31;53.74;98553.13;5051459;28;9560;-71
2021/08/31 07:36:24;;;;;;;;;2.20;2.20;;;;;34.34;54.24;98530.34;5051405;28;8843;-71
2021/08/31 07:38:55;;;;;;;;;2.00;2.00;;;;;34.38;53.91;98502.88;5051236;28;8961;-71
2021/08/31 07:41:24;;;;;;;;;2.00;2.00;;;;;34.39;53.50;98482.50;5051642;28;8846;-71
2021/08/31 07:43:52;;;;;;;;;2.00;2.00;;;;;34.61;53.59;98508.13;5054534;28;8850;-72
2021/08/31 07:46:21;;;;;;;;;2.00;2.00;;;;;34.66;53.22;98511.09;5055253;28;8838;-71
2021/08/31 07:48:50;;;;;;;;;2.00;2.00;;;;;34.75;53.36;98515.16;5055271;28;8883;-71
2021/08/31 07:51:19;;;;;;;;;2.80;2.80;;;;;34.66;53.11;98499.38;5054708;28;8849;-71
2021/08/31 07:53:47;;;;;;;;;2.00;2.00;;;;;34.94;52.43;98517.00;5054732;28;8831;-71
2021/08/31 07:56:16;;;;;;;;;2.00;2.00;;;;;34.96;51.95;98506.38;5055243;28;8854;-71
2021/08/31 07:58:45;;;;;;;;;3.20;3.20;;;;;35.05;51.77;98497.50;5054510;28;8850;-71
2021/08/31 08:01:13;;;;;;;;;2.00;2.00;;;;;35.09;51.59;98503.63;5054853;28;9709;-71
2021/08/31 08:03:42;;;;;;;;;2.20;2.20;;;;;35.13;51.86;98507.00;5054682;28;8842;-71
2021/08/31 08:06:10;;;;;;;;;2.20;2.20;;;;;35.08;52.16;98502.88;5054790;28;8866;-71
2021/08/31 08:08:39;;;;;;;;;3.00;3.00;;;;;35.16;51.25;98526.09;5054401;28;8843;-72
2021/08/31 08:11:07;;;;;;;;;2.20;2.20;;;;;35.12;52.09;98521.94;5054628;28;8834;-71
2021/08/31 08:13:36;;;;;;;;;4.00;4.00;;;;;35.04;53.45;98513.19;5054323;28;9531;-71
2021/08/31 08:16:04;;;;;;;;;3.00;3.00;;;;;34.95;56.20;98507.56;5054452;28;8850;-71
2021/08/31 08:18:34;;;;;;;;;0.00;0.00;;;;;34.70;55.73;98502.78;5054556;28;8854;-71
2021/08/31 08:21:03;;;;;;;;;2.00;2.00;;;;;34.27;56.22;98503.91;5054301;28;8920;-71
2021/08/31 08:23:32;;;;;;;;;2.00;2.00;;;;;33.92;56.53;98513.78;5054232;28;8854;-71
2021/08/31 08:26:04;;;;;;;;;0.60;0.60;;;;;33.33;57.17;98494.88;5054424;28;8835;-71
2021/08/31 08:28:32;;;;;;;;;1.00;1.00;;;;;33.01;56.82;98506.47;5054408;28;8850;-71
2021/08/31 08:31:01;;;;;;;;;1.00;1.00;;;;;32.63;57.18;98506.81;5054215;28;8893;-71
2021/08/31 08:33:32;;;;;;;;;1.00;1.00;;;;;32.28;57.07;98526.63;5053980;28;8885;-71
2021/08/31 08:36:03;;;;;;;;;0.80;0.80;;;;;31.86;57.09;98541.72;5054047;28;8889;-71
2021/08/31 08:38:33;;;;;;;;;0.80;0.80;;;;;31.54;57.48;98550.38;5052778;28;8854;-71
2021/08/31 08:41:06;;;;;;;;;1.00;1.00;;;;;31.21;57.25;98547.28;5053847;28;8839;-71
2021/08/31 08:43:36;;;;;;;;;0.40;0.40;;;;;30.92;57.78;98538.72;5054299;28;8912;-71
2021/08/31 08:46:06;;;;;;;;;0.60;0.60;;;;;30.67;57.54;98517.22;5053854;28;8843;-71
2021/08/31 08:48:36;;;;;;;;;0.00;0.00;;;;;30.38;58.45;98494.94;5053769;28;8846;-71
2021/08/31 08:51:05;;;;;;;;;0.00;0.00;;;;;30.23;58.53;98479.94;5053743;28;8869;-71
2021/08/31 08:53:35;;;;;;;;;0.00;0.00;;;;;29.94;58.58;98441.31;5053833;28;8851;-72
2021/08/31 08:56:04;;;;;;;;;1.00;1.00;;;;;29.84;58.99;98447.66;5053699;28;8839;-72
2021/08/31 08:58:33;;;;;;;;;0.00;0.00;;;;;29.72;59.21;98459.03;5053557;28;9615;-72
2021/08/31 09:01:11;;;;;;;;;0.80;0.80;;;;;29.59;59.53;98472.34;5053639;28;8838;-72
2021/08/31 09:03:50;;;;;;;;;0.80;0.80;;;;;29.59;59.62;98499.50;5053475;28;8877;-72
2021/08/31 09:06:21;;;;;;;;;0.80;0.80;;;;;29.54;60.21;98518.97;5053420;28;8838;-72
2021/08/31 09:08:55;;;;;;;;;1.00;1.00;;;;;29.50;60.83;98548.88;5053346;28;8846;-72
2021/08/31 09:11:34;;;;;;;;;0.80;0.80;;;;;29.36;60.79;98540.78;5051060;28;8847;-72
2021/08/31 09:14:15;;;;;;;;;0.20;0.20;;;;;29.43;60.98;98561.72;5052817;28;8847;-72
2021/08/31 09:16:46;;;;;;;;;0.40;0.40;;;;;29.35;61.41;98549.31;5052995;28;8854;-73
2021/08/31 09:19:16;;;;;;;;;0.20;0.20;;;;;29.39;61.91;98560.94;5052714;28;8850;-73
2021/08/31 09:21:48;;;;;;;;;0.00;0.00;;;;;29.43;61.63;98583.47;5052253;28;8973;-72
2021/08/31 09:24:20;;;;;;;;;1.00;1.00;;;;;29.42;63.12;98599.00;5052691;28;8838;-73
2021/08/31 09:26:50;;;;;;;;;0.00;0.00;;;;;29.40;63.50;98611.41;5052869;28;8873;-72
2021/08/31 09:29:23;;;;;;;;;0.20;0.20;;;;;29.42;63.02;98620.75;5052682;28;8846;-71
2021/08/31 09:31:56;;;;;;;;;0.20;0.20;;;;;29.43;63.59;98622.28;5052239;28;8944;-73
2021/08/31 09:34:36;;;;;;;;;0.20;0.20;;;;;29.43;62.61;98621.53;5052555;28;8843;-73
2021/08/31 09:37:29;;;;;;;;;0.40;0.40;;;;;29.41;63.29;98624.59;5052678;28;8949;-72
2021/08/31 09:40:10;;;;;;;;;1.00;1.00;;;;;29.44;63.27;98639.38;5052838;28;8850;-72
2021/08/31 09:42:52;;;;;;;;;1.00;1.00;;;;;29.43;62.56;98630.44;5052167;28;8952;-72
2021/08/31 09:45:33;;;;;;;;;0.20;0.20;;;;;29.15;62.92;98585.13;5052262;28;8867;-72
2021/08/31 09:48:04;;;;;;;;;0.60;0.60;;;;;29.37;63.30;98612.19;5052195;28;8858;-71
2021/08/31 09:50:42;;;;;;;;;0.00;0.00;;;;;29.40;63.76;98614.13;5052429;28;8831;-74
2021/08/31 09:53:12;;;;;;;;;0.80;0.80;;;;;29.49;63.40;98619.94;5052217;28;8870;-71
2021/08/31 09:55:43;;;;;;;;;0.80;0.80;;;;;29.58;63.10;98617.56;5050936;28;8884;-70
2021/08/31 09:58:25;;;;;;;;;0.00;0.00;;;;;29.63;62.58;98603.56;5052164;28;8851;-70
2021/08/31 10:00:54;;;;;;;;;0.60;0.60;;;;;29.58;62.61;98576.78;5052405;28;9681;-70
2021/08/31 10:03:25;;;;;;;;;1.40;1.40;;;;;29.82;62.43;98603.06;5051146;28;8932;-71
2021/08/31 10:05:57;;;;;;;;;0.00;0.00;;;;;29.84;62.50;98584.38;5052299;28;8985;-70
2021/08/31 10:08:28;;;;;;;;;0.80;0.80;;;;;29.82;63.41;98575.88;5052317;28;9603;-70
2021/08/31 10:10:58;;;;;;;;;0.00;0.00;;;;;29.76;62.67;98580.19;5052193;28;9692;-70
2021/08/31 10:13:28;;;;;;;;;0.20;0.20;;;;;29.68;63.55;98589.53;5052180;28;8873;-70
2021/08/31 10:15:58;;;;;;;;;0.80;0.80;;;;;29.60;63.52;98603.56;5052261;28;8865;-70
2021/08/31 10:18:29;;;;;;;;;0.80;0.80;;;;;29.56;64.29;98616.41;5052351;28;8834;-70
2021/08/31 10:21:14;;;;;;;;;0.80;0.80;;;;;29.57;64.56;98626.13;5051205;28;8826;-71
2021/08/31 10:23:45;;;;;;;;;0.80;0.80;;;;;29.59;63.99;98632.69;5052078;28;8839;-70
2021/08/31 10:26:26;;;;;;;;;1.00;1.00;;;;;29.66;64.06;98645.47;5052058;28;8885;-71
2021/08/31 10:29:14;;;;;;;;;1.00;1.00;;;;;29.71;63.80;98642.34;5052308;28;8842;-71
2021/08/31 10:31:45;;;;;;;;;0.80;0.80;;;;;29.67;63.52;98634.22;5051964;28;8961;-70
2021/08/31 10:34:39;;;;;;;;;0.80;0.80;;;;;29.73;63.54;98637.28;5051959;28;8854;-70
2021/08/31 10:37:13;;;;;;;;;1.00;1.00;;;;;29.71;63.69;98636.91;5051964;28;8835;-70
2021/08/31 10:40:02;;;;;;;;;0.40;0.40;;;;;29.69;63.49;98648.19;5051940;28;8859;-70
2021/08/31 10:42:30;;;;;;;;;1.40;1.40;;;;;29.68;63.82;98649.34;5051915;28;8927;-71
2021/08/31 10:45:03;;;;;;;;;1.00;1.00;;;;;29.58;63.11;98642.03;5052156;28;9657;-71
2021/08/31 10:47:38;;;;;;;;;1.00;1.00;;;;;29.53;63.64;98643.22;5051917;28;8874;-70
2021/08/31 10:50:10;;;;;;;;;1.60;1.60;;;;;29.54;64.15;98652.91;5051618;28;8932;-71
2021/08/31 10:52:43;;;;;;;;;0.00;0.00;;;;;29.43;64.38;98646.75;5051824;28;8835;-70
2021/08/31 10:55:33;;;;;;;;;1.00;1.00;;;;;29.46;64.02;98659.56;5051775;28;8867;-70
2021/08/31 10:58:10;;;;;;;;;1.00;1.00;;;;;29.43;64.47;98671.22;5051715;28;8866;-70
2021/08/31 11:00:57;;;;;;;;;0.80;0.80;;;;;29.36;64.27;98671.19;5051714;28;8838;-70
2021/08/31 11:03:33;;;;;;;;;1.00;1.00;;;;;29.25;64.19;98670.47;5051843;28;8831;-71
2021/08/31 11:06:22;;;;;;;;;0.80;0.80;;;;;29.14;64.50;98664.28;5051782;28;8867;-70
2021/08/31 11:09:11;;;;;;;;;1.00;1.00;;;;;29.09;64.98;98659.25;5051606;28;9555;-70
2021/08/31 11:11:42;;;;;;;;;1.00;1.00;;;;;29.06;64.70;98662.75;5051626;28;8862;-70
2021/08/31 11:14:13;;;;;;;;;0.60;0.60;;;;;28.95;64.68;98654.63;5051783;28;8908;-71
2021/08/31 11:16:46;;;;;;;;;0.40;0.40;;;;;28.86;64.84;98659.69;5052041;28;8867;-70
2021/08/31 11:19:28;;;;;;;;;0.00;0.00;;;;;28.76;65.25;98647.66;5055444;28;8850;-70
2021/08/31 11:21:58;;;;;;;;;0.00;0.00;;;;;28.75;65.88;98653.47;5055413;28;8834;-70
2021/08/31 11:24:29;;;;;;;;;0.80;0.80;;;;;28.66;66.02;98650.38;5056187;28;8976;-70
2021/08/31 11:27:00;;;;;;;;;0.00;0.00;;;;;28.62;65.37;98644.94;5055316;28;8877;-70
2021/08/31 11:29:29;;;;;;;;;0.60;0.60;;;;;28.57;66.30;98637.22;5055281;28;8838;-70
2021/08/31 11:31:59;;;;;;;;;0.80;0.80;;;;;28.53;66.43;98639.94;5055497;28;8925;-71
2021/08/31 11:34:32;;;;;;;;;0.20;0.20;;;;;28.55;66.55;98640.34;5054747;28;8873;-70
2021/08/31 11:37:04;;;;;;;;;0.00;0.00;;;;;28.50;66.56;98632.56;5055259;28;8850;-71
2021/08/31 11:39:33;;;;;;;;;0.20;0.20;;;;;28.54;65.95;98641.50;5055324;28;8931;-70
2021/08/31 11:42:09;;;;;;;;;0.00;0.00;;;;;28.65;66.36;98649.59;5055480;28;9583;-70
2021/08/31 11:44:37;;;;;;;;;0.00;0.00;;;;;28.71;66.06;98669.75;5055429;28;8862;-70
2021/08/31 11:47:15;;;;;;;;;0.40;0.40;;;;;28.66;65.52;98662.00;5054922;28;8855;-71
2021/08/31 11:49:43;;;;;;;;;0.60;0.60;;;;;28.58;65.59;98666.69;5054866;28;8854;-71
2021/08/31 11:52:15;;;;;;;;;0.40;0.40;;;;;28.53;65.86;98679.88;5055003;28;8975;-71
2021/08/31 11:54:50;;;;;;;;;0.00;0.00;;;;;28.45;65.29;98673.66;5054828;28;8831;-71
2021/08/31 11:57:19;;;;;;;;;0.00;0.00;;;;;28.48;65.74;98685.69;5054821;28;8846;-70